sensor_id;sensor_type;location;lat;lon;timestamp;P1;durP1;ratioP1;P2;durP2;ratioP2
8048;SDS011;20935;42.660;23.342;2022-10-31T00:00:11;7.37;;;4.03;;
8048;SDS011;20935;42.660;23.342;2022-10-31T00:02:37;5.57;;;3.97;;
8048;SDS011;20935;42.660;23.342;2022-10-31T00:05:04;5.93;;;4.23;;
8048;SDS011;20935;42.660;23.342;2022-10-31T00:07:30;6.00;;;4.37;;
8048;SDS011;20935;42.660;23.342;2022-10-31T00:09:57;7.00;;;4.77;;
8048;SDS011;20935;42.660;23.342;2022-10-31T00:12:23;7.60;;;4.07;;
8048;SDS011;20935;42.660;23.342;2022-10-31T00:14:58;5.40;;;4.23;;
8048;SDS011;20935;42.660;23.342;2022-10-31T00:17:23;4.23;;;3.73;;
8048;SDS011;20935;42.660;23.342;2022-10-31T00:19:49;6.00;;;4.47;;
8048;SDS011;20935;42.660;23.342;2022-10-31T00:22:16;5.33;;;4.23;;
8048;SDS011;20935;42.660;23.342;2022-10-31T00:24:42;4.20;;;3.77;;
8048;SDS011;20935;42.660;23.342;2022-10-31T00:27:08;5.07;;;4.07;;
8048;SDS011;20935;42.660;23.342;2022-10-31T00:29:34;7.53;;;4.33;;
8048;SDS011;20935;42.660;23.342;2022-10-31T00:32:00;6.23;;;4.30;;
8048;SDS011;20935;42.660;23.342;2022-10-31T00:34:26;5.30;;;4.20;;
8048;SDS011;20935;42.660;23.342;2022-10-31T00:36:52;5.33;;;4.30;;
8048;SDS011;20935;42.660;23.342;2022-10-31T00:39:21;7.70;;;4.07;;
8048;SDS011;20935;42.660;23.342;2022-10-31T00:41:48;7.93;;;4.47;;
8048;SDS011;20935;42.660;23.342;2022-10-31T00:44:19;6.40;;;4.23;;
8048;SDS011;20935;42.660;23.342;2022-10-31T00:46:45;6.67;;;4.17;;
8048;SDS011;20935;42.660;23.342;2022-10-31T00:49:10;5.33;;;4.20;;
8048;SDS011;20935;42.660;23.342;2022-10-31T00:51:38;8.20;;;4.90;;
8048;SDS011;20935;42.660;23.342;2022-10-31T00:54:04;6.67;;;4.23;;
8048;SDS011;20935;42.660;23.342;2022-10-31T00:56:30;7.13;;;4.87;;
8048;SDS011;20935;42.660;23.342;2022-10-31T00:58:55;4.53;;;3.87;;
8048;SDS011;20935;42.660;23.342;2022-10-31T01:01:21;7.07;;;4.20;;
8048;SDS011;20935;42.660;23.342;2022-10-31T01:03:47;7.87;;;4.20;;
8048;SDS011;20935;42.660;23.342;2022-10-31T01:06:13;6.17;;;4.03;;
8048;SDS011;20935;42.660;23.342;2022-10-31T01:08:42;7.07;;;4.37;;
8048;SDS011;20935;42.660;23.342;2022-10-31T01:11:12;5.40;;;4.20;;
8048;SDS011;20935;42.660;23.342;2022-10-31T01:13:39;6.27;;;4.33;;
8048;SDS011;20935;42.660;23.342;2022-10-31T01:16:05;6.87;;;4.93;;
8048;SDS011;20935;42.660;23.342;2022-10-31T01:18:32;5.43;;;3.80;;
8048;SDS011;20935;42.660;23.342;2022-10-31T01:21:03;5.50;;;4.20;;
8048;SDS011;20935;42.660;23.342;2022-10-31T01:23:29;4.87;;;3.90;;
8048;SDS011;20935;42.660;23.342;2022-10-31T01:28:48;5.10;;;4.03;;
8048;SDS011;20935;42.660;23.342;2022-10-31T01:31:16;4.53;;;3.70;;
8048;SDS011;20935;42.660;23.342;2022-10-31T01:33:41;4.80;;;3.90;;
8048;SDS011;20935;42.660;23.342;2022-10-31T01:36:18;6.83;;;4.00;;
8048;SDS011;20935;42.660;23.342;2022-10-31T01:38:46;7.47;;;4.70;;
8048;SDS011;20935;42.660;23.342;2022-10-31T01:41:12;6.40;;;4.40;;
8048;SDS011;20935;42.660;23.342;2022-10-31T01:43:45;6.50;;;4.50;;
8048;SDS011;20935;42.660;23.342;2022-10-31T01:46:11;5.23;;;4.53;;
8048;SDS011;20935;42.660;23.342;2022-10-31T01:48:37;7.13;;;4.40;;
8048;SDS011;20935;42.660;23.342;2022-10-31T01:51:04;6.13;;;4.70;;
8048;SDS011;20935;42.660;23.342;2022-10-31T01:53:31;10.63;;;5.73;;
8048;SDS011;20935;42.660;23.342;2022-10-31T01:55:57;8.00;;;6.57;;
8048;SDS011;20935;42.660;23.342;2022-10-31T01:58:24;9.53;;;7.60;;
8048;SDS011;20935;42.660;23.342;2022-10-31T02:00:51;9.40;;;7.57;;
8048;SDS011;20935;42.660;23.342;2022-10-31T02:03:25;9.30;;;7.03;;
8048;SDS011;20935;42.660;23.342;2022-10-31T02:05:53;7.40;;;5.57;;
8048;SDS011;20935;42.660;23.342;2022-10-31T02:08:25;8.53;;;5.90;;
8048;SDS011;20935;42.660;23.342;2022-10-31T02:10:54;8.77;;;5.93;;
8048;SDS011;20935;42.660;23.342;2022-10-31T02:13:19;6.73;;;4.87;;
8048;SDS011;20935;42.660;23.342;2022-10-31T02:15:51;8.03;;;5.13;;
8048;SDS011;20935;42.660;23.342;2022-10-31T02:18:18;9.87;;;5.87;;
8048;SDS011;20935;42.660;23.342;2022-10-31T02:20:50;9.33;;;7.57;;
8048;SDS011;20935;42.660;23.342;2022-10-31T02:23:37;10.57;;;7.67;;
8048;SDS011;20935;42.660;23.342;2022-10-31T02:31:42;10.77;;;7.60;;
8048;SDS011;20935;42.660;23.342;2022-10-31T02:39:08;11.20;;;7.83;;
8048;SDS011;20935;42.660;23.342;2022-10-31T02:49:15;10.50;;;8.17;;
8048;SDS011;20935;42.660;23.342;2022-10-31T02:51:43;10.20;;;7.73;;
8048;SDS011;20935;42.660;23.342;2022-10-31T02:54:17;14.53;;;7.83;;
8048;SDS011;20935;42.660;23.342;2022-10-31T02:56:44;16.50;;;8.10;;
8048;SDS011;20935;42.660;23.342;2022-10-31T02:59:09;10.63;;;8.23;;
8048;SDS011;20935;42.660;23.342;2022-10-31T03:04:19;10.27;;;8.17;;
8048;SDS011;20935;42.660;23.342;2022-10-31T03:09:20;9.57;;;7.70;;
8048;SDS011;20935;42.660;23.342;2022-10-31T03:12:07;11.37;;;7.97;;
8048;SDS011;20935;42.660;23.342;2022-10-31T03:14:58;14.27;;;8.80;;
8048;SDS011;20935;42.660;23.342;2022-10-31T03:17:25;11.13;;;8.10;;
8048;SDS011;20935;42.660;23.342;2022-10-31T03:19:52;10.10;;;8.40;;
8048;SDS011;20935;42.660;23.342;2022-10-31T03:22:21;12.17;;;8.33;;
8048;SDS011;20935;42.660;23.342;2022-10-31T03:24:48;12.37;;;8.23;;
8048;SDS011;20935;42.660;23.342;2022-10-31T03:27:18;12.03;;;7.60;;
8048;SDS011;20935;42.660;23.342;2022-10-31T03:29:45;15.73;;;7.57;;
8048;SDS011;20935;42.660;23.342;2022-10-31T03:32:13;15.27;;;8.67;;
8048;SDS011;20935;42.660;23.342;2022-10-31T03:34:40;13.83;;;7.93;;
8048;SDS011;20935;42.660;23.342;2022-10-31T03:37:07;14.67;;;7.67;;
8048;SDS011;20935;42.660;23.342;2022-10-31T03:39:34;11.57;;;7.53;;
8048;SDS011;20935;42.660;23.342;2022-10-31T03:45:18;10.50;;;7.87;;
8048;SDS011;20935;42.660;23.342;2022-10-31T03:47:42;9.93;;;8.50;;
8048;SDS011;20935;42.660;23.342;2022-10-31T03:50:09;11.27;;;7.73;;
8048;SDS011;20935;42.660;23.342;2022-10-31T03:52:50;9.07;;;7.83;;
8048;SDS011;20935;42.660;23.342;2022-10-31T04:00:13;10.33;;;7.60;;
8048;SDS011;20935;42.660;23.342;2022-10-31T04:02:43;12.57;;;7.50;;
8048;SDS011;20935;42.660;23.342;2022-10-31T04:05:13;9.80;;;7.53;;
8048;SDS011;20935;42.660;23.342;2022-10-31T04:07:43;10.70;;;8.03;;
8048;SDS011;20935;42.660;23.342;2022-10-31T04:10:11;11.60;;;8.23;;
8048;SDS011;20935;42.660;23.342;2022-10-31T04:12:38;9.03;;;7.53;;
8048;SDS011;20935;42.660;23.342;2022-10-31T04:15:05;13.67;;;8.70;;
8048;SDS011;20935;42.660;23.342;2022-10-31T04:17:35;12.30;;;8.63;;
8048;SDS011;20935;42.660;23.342;2022-10-31T04:20:02;12.33;;;8.87;;
8048;SDS011;20935;42.660;23.342;2022-10-31T04:22:33;11.47;;;9.47;;
8048;SDS011;20935;42.660;23.342;2022-10-31T04:24:59;12.17;;;8.50;;
8048;SDS011;20935;42.660;23.342;2022-10-31T04:27:25;12.87;;;8.67;;
8048;SDS011;20935;42.660;23.342;2022-10-31T04:29:50;12.07;;;9.23;;
8048;SDS011;20935;42.660;23.342;2022-10-31T04:32:18;12.40;;;8.70;;
8048;SDS011;20935;42.660;23.342;2022-10-31T04:34:44;14.60;;;9.27;;
8048;SDS011;20935;42.660;23.342;2022-10-31T04:37:10;12.93;;;9.40;;
8048;SDS011;20935;42.660;23.342;2022-10-31T04:39:36;10.30;;;7.90;;
8048;SDS011;20935;42.660;23.342;2022-10-31T04:42:01;12.10;;;9.13;;
8048;SDS011;20935;42.660;23.342;2022-10-31T04:44:27;13.53;;;8.87;;
8048;SDS011;20935;42.660;23.342;2022-10-31T04:46:53;15.27;;;8.87;;
8048;SDS011;20935;42.660;23.342;2022-10-31T04:49:18;11.87;;;8.13;;
8048;SDS011;20935;42.660;23.342;2022-10-31T04:51:44;11.27;;;8.03;;
8048;SDS011;20935;42.660;23.342;2022-10-31T04:54:13;10.77;;;8.53;;
8048;SDS011;20935;42.660;23.342;2022-10-31T04:56:38;12.40;;;8.63;;
8048;SDS011;20935;42.660;23.342;2022-10-31T04:59:06;11.87;;;9.30;;
8048;SDS011;20935;42.660;23.342;2022-10-31T05:01:32;15.17;;;10.10;;
8048;SDS011;20935;42.660;23.342;2022-10-31T05:04:01;13.57;;;9.13;;
8048;SDS011;20935;42.660;23.342;2022-10-31T05:06:26;14.37;;;10.67;;
8048;SDS011;20935;42.660;23.342;2022-10-31T05:08:52;13.93;;;9.03;;
8048;SDS011;20935;42.660;23.342;2022-10-31T05:11:21;12.47;;;8.97;;
8048;SDS011;20935;42.660;23.342;2022-10-31T05:13:46;13.97;;;8.60;;
8048;SDS011;20935;42.660;23.342;2022-10-31T05:16:12;10.73;;;8.37;;
8048;SDS011;20935;42.660;23.342;2022-10-31T05:18:39;15.03;;;9.77;;
8048;SDS011;20935;42.660;23.342;2022-10-31T05:21:04;15.27;;;9.07;;
8048;SDS011;20935;42.660;23.342;2022-10-31T05:23:31;12.43;;;8.93;;
8048;SDS011;20935;42.660;23.342;2022-10-31T05:25:56;11.70;;;8.40;;
8048;SDS011;20935;42.660;23.342;2022-10-31T05:28:22;12.60;;;8.20;;
8048;SDS011;20935;42.660;23.342;2022-10-31T05:30:47;14.83;;;10.13;;
8048;SDS011;20935;42.660;23.342;2022-10-31T05:33:13;16.73;;;9.27;;
8048;SDS011;20935;42.660;23.342;2022-10-31T05:35:38;16.23;;;9.53;;
8048;SDS011;20935;42.660;23.342;2022-10-31T05:38:04;14.20;;;9.70;;
8048;SDS011;20935;42.660;23.342;2022-10-31T05:40:33;10.50;;;9.03;;
8048;SDS011;20935;42.660;23.342;2022-10-31T05:42:59;11.50;;;9.37;;
8048;SDS011;20935;42.660;23.342;2022-10-31T05:45:30;13.37;;;9.30;;
8048;SDS011;20935;42.660;23.342;2022-10-31T05:47:57;15.03;;;9.70;;
8048;SDS011;20935;42.660;23.342;2022-10-31T05:50:23;14.13;;;10.77;;
8048;SDS011;20935;42.660;23.342;2022-10-31T05:53:10;11.47;;;9.40;;
8048;SDS011;20935;42.660;23.342;2022-10-31T05:55:35;15.07;;;10.27;;
8048;SDS011;20935;42.660;23.342;2022-10-31T05:58:00;13.97;;;9.67;;
8048;SDS011;20935;42.660;23.342;2022-10-31T06:00:26;16.33;;;10.37;;
8048;SDS011;20935;42.660;23.342;2022-10-31T06:03:05;16.50;;;10.43;;
8048;SDS011;20935;42.660;23.342;2022-10-31T06:05:31;14.57;;;10.20;;
8048;SDS011;20935;42.660;23.342;2022-10-31T06:07:56;15.43;;;9.67;;
8048;SDS011;20935;42.660;23.342;2022-10-31T06:10:22;15.57;;;9.87;;
8048;SDS011;20935;42.660;23.342;2022-10-31T06:12:48;15.33;;;10.80;;
8048;SDS011;20935;42.660;23.342;2022-10-31T06:15:14;15.90;;;11.53;;
8048;SDS011;20935;42.660;23.342;2022-10-31T06:17:40;16.73;;;11.43;;
8048;SDS011;20935;42.660;23.342;2022-10-31T06:20:10;16.03;;;11.17;;
8048;SDS011;20935;42.660;23.342;2022-10-31T06:22:39;18.10;;;11.53;;
8048;SDS011;20935;42.660;23.342;2022-10-31T06:25:05;17.27;;;11.87;;
8048;SDS011;20935;42.660;23.342;2022-10-31T06:27:31;17.83;;;11.63;;
8048;SDS011;20935;42.660;23.342;2022-10-31T06:29:57;16.83;;;12.00;;
8048;SDS011;20935;42.660;23.342;2022-10-31T06:32:26;18.97;;;13.37;;
8048;SDS011;20935;42.660;23.342;2022-10-31T06:34:52;15.77;;;12.07;;
8048;SDS011;20935;42.660;23.342;2022-10-31T06:37:18;17.40;;;11.83;;
8048;SDS011;20935;42.660;23.342;2022-10-31T06:39:44;18.17;;;12.33;;
8048;SDS011;20935;42.660;23.342;2022-10-31T06:42:10;14.67;;;11.87;;
8048;SDS011;20935;42.660;23.342;2022-10-31T06:44:41;16.43;;;11.80;;
8048;SDS011;20935;42.660;23.342;2022-10-31T06:47:07;19.27;;;13.03;;
8048;SDS011;20935;42.660;23.342;2022-10-31T06:49:33;17.37;;;12.33;;
8048;SDS011;20935;42.660;23.342;2022-10-31T06:51:58;22.93;;;13.17;;
8048;SDS011;20935;42.660;23.342;2022-10-31T06:54:24;15.10;;;12.80;;
8048;SDS011;20935;42.660;23.342;2022-10-31T06:56:50;15.40;;;12.30;;
8048;SDS011;20935;42.660;23.342;2022-10-31T06:59:15;19.10;;;12.70;;
8048;SDS011;20935;42.660;23.342;2022-10-31T07:01:41;19.50;;;13.60;;
8048;SDS011;20935;42.660;23.342;2022-10-31T07:04:08;18.40;;;13.40;;
8048;SDS011;20935;42.660;23.342;2022-10-31T07:06:34;17.17;;;13.03;;
8048;SDS011;20935;42.660;23.342;2022-10-31T07:09:00;18.73;;;13.47;;
8048;SDS011;20935;42.660;23.342;2022-10-31T07:11:25;15.93;;;12.73;;
8048;SDS011;20935;42.660;23.342;2022-10-31T07:13:54;16.63;;;12.70;;
8048;SDS011;20935;42.660;23.342;2022-10-31T07:16:20;19.23;;;13.67;;
8048;SDS011;20935;42.660;23.342;2022-10-31T07:18:46;18.33;;;12.97;;
8048;SDS011;20935;42.660;23.342;2022-10-31T07:21:15;17.87;;;13.20;;
8048;SDS011;20935;42.660;23.342;2022-10-31T07:23:42;18.30;;;13.13;;
8048;SDS011;20935;42.660;23.342;2022-10-31T07:26:08;19.23;;;13.73;;
8048;SDS011;20935;42.660;23.342;2022-10-31T07:28:35;25.33;;;13.80;;
8048;SDS011;20935;42.660;23.342;2022-10-31T07:31:01;17.33;;;12.67;;
8048;SDS011;20935;42.660;23.342;2022-10-31T07:33:27;18.07;;;13.47;;
8048;SDS011;20935;42.660;23.342;2022-10-31T07:35:53;17.13;;;12.77;;
8048;SDS011;20935;42.660;23.342;2022-10-31T07:38:19;14.97;;;12.77;;
8048;SDS011;20935;42.660;23.342;2022-10-31T07:40:49;18.97;;;12.47;;
8048;SDS011;20935;42.660;23.342;2022-10-31T07:43:15;17.87;;;12.73;;
8048;SDS011;20935;42.660;23.342;2022-10-31T07:45:40;17.43;;;13.40;;
8048;SDS011;20935;42.660;23.342;2022-10-31T07:48:07;17.57;;;13.50;;
8048;SDS011;20935;42.660;23.342;2022-10-31T07:50:32;23.77;;;13.53;;
8048;SDS011;20935;42.660;23.342;2022-10-31T07:53:09;17.27;;;12.37;;
8048;SDS011;20935;42.660;23.342;2022-10-31T07:55:37;16.20;;;13.10;;
8048;SDS011;20935;42.660;23.342;2022-10-31T07:58:04;17.83;;;13.07;;
8048;SDS011;20935;42.660;23.342;2022-10-31T08:00:31;16.90;;;13.57;;
8048;SDS011;20935;42.660;23.342;2022-10-31T08:03:00;31.20;;;14.50;;
8048;SDS011;20935;42.660;23.342;2022-10-31T08:05:26;22.43;;;14.13;;
8048;SDS011;20935;42.660;23.342;2022-10-31T08:07:52;21.37;;;14.30;;
8048;SDS011;20935;42.660;23.342;2022-10-31T08:10:18;22.53;;;15.90;;
8048;SDS011;20935;42.660;23.342;2022-10-31T08:12:44;20.50;;;14.17;;
8048;SDS011;20935;42.660;23.342;2022-10-31T08:15:10;18.10;;;13.17;;
8048;SDS011;20935;42.660;23.342;2022-10-31T08:17:39;19.43;;;14.40;;
8048;SDS011;20935;42.660;23.342;2022-10-31T08:20:05;15.87;;;13.20;;
8048;SDS011;20935;42.660;23.342;2022-10-31T08:22:32;16.80;;;13.37;;
8048;SDS011;20935;42.660;23.342;2022-10-31T08:25:00;20.73;;;13.47;;
8048;SDS011;20935;42.660;23.342;2022-10-31T08:27:26;18.90;;;13.40;;
8048;SDS011;20935;42.660;23.342;2022-10-31T08:29:52;16.67;;;12.93;;
8048;SDS011;20935;42.660;23.342;2022-10-31T08:32:24;17.13;;;12.97;;
8048;SDS011;20935;42.660;23.342;2022-10-31T08:34:50;23.63;;;13.80;;
8048;SDS011;20935;42.660;23.342;2022-10-31T08:37:16;21.50;;;13.23;;
8048;SDS011;20935;42.660;23.342;2022-10-31T08:39:48;16.90;;;12.13;;
8048;SDS011;20935;42.660;23.342;2022-10-31T08:42:14;14.80;;;12.30;;
8048;SDS011;20935;42.660;23.342;2022-10-31T08:44:41;20.97;;;12.27;;
8048;SDS011;20935;42.660;23.342;2022-10-31T08:47:07;15.43;;;11.63;;
8048;SDS011;20935;42.660;23.342;2022-10-31T08:49:35;16.73;;;12.23;;
8048;SDS011;20935;42.660;23.342;2022-10-31T08:52:00;17.67;;;13.00;;
8048;SDS011;20935;42.660;23.342;2022-10-31T08:54:26;17.97;;;12.07;;
8048;SDS011;20935;42.660;23.342;2022-10-31T08:56:58;18.73;;;11.57;;
8048;SDS011;20935;42.660;23.342;2022-10-31T08:59:24;17.43;;;12.47;;
8048;SDS011;20935;42.660;23.342;2022-10-31T09:01:53;13.00;;;11.70;;
8048;SDS011;20935;42.660;23.342;2022-10-31T09:04:19;19.67;;;12.50;;
8048;SDS011;20935;42.660;23.342;2022-10-31T09:06:45;18.40;;;12.07;;
8048;SDS011;20935;42.660;23.342;2022-10-31T09:09:17;19.87;;;13.43;;
8048;SDS011;20935;42.660;23.342;2022-10-31T09:11:43;18.27;;;12.93;;
8048;SDS011;20935;42.660;23.342;2022-10-31T09:14:08;18.63;;;13.27;;
8048;SDS011;20935;42.660;23.342;2022-10-31T09:16:34;18.97;;;12.20;;
8048;SDS011;20935;42.660;23.342;2022-10-31T09:19:00;17.50;;;12.43;;
8048;SDS011;20935;42.660;23.342;2022-10-31T09:21:26;15.33;;;12.60;;
8048;SDS011;20935;42.660;23.342;2022-10-31T09:23:51;17.43;;;12.03;;
8048;SDS011;20935;42.660;23.342;2022-10-31T09:26:19;18.17;;;12.60;;
8048;SDS011;20935;42.660;23.342;2022-10-31T09:28:45;19.13;;;13.10;;
8048;SDS011;20935;42.660;23.342;2022-10-31T09:31:11;14.90;;;11.67;;
8048;SDS011;20935;42.660;23.342;2022-10-31T09:33:36;17.53;;;11.93;;
8048;SDS011;20935;42.660;23.342;2022-10-31T09:36:03;15.73;;;11.70;;
8048;SDS011;20935;42.660;23.342;2022-10-31T09:38:28;18.30;;;11.47;;
8048;SDS011;20935;42.660;23.342;2022-10-31T09:40:55;13.43;;;10.93;;
8048;SDS011;20935;42.660;23.342;2022-10-31T09:46:13;19.80;;;11.73;;
8048;SDS011;20935;42.660;23.342;2022-10-31T09:51:32;15.37;;;9.97;;
8048;SDS011;20935;42.660;23.342;2022-10-31T09:56:30;14.67;;;9.87;;
8048;SDS011;20935;42.660;23.342;2022-10-31T09:59:00;13.73;;;10.00;;
8048;SDS011;20935;42.660;23.342;2022-10-31T10:03:53;11.63;;;9.97;;
8048;SDS011;20935;42.660;23.342;2022-10-31T10:06:20;11.37;;;8.07;;
8048;SDS011;20935;42.660;23.342;2022-10-31T10:08:46;16.50;;;8.90;;
8048;SDS011;20935;42.660;23.342;2022-10-31T10:16:31;11.80;;;7.33;;
8048;SDS011;20935;42.660;23.342;2022-10-31T10:24:17;10.37;;;6.27;;
8048;SDS011;20935;42.660;23.342;2022-10-31T10:26:43;6.00;;;5.37;;
8048;SDS011;20935;42.660;23.342;2022-10-31T10:31:41;9.03;;;5.67;;
8048;SDS011;20935;42.660;23.342;2022-10-31T10:34:28;9.80;;;6.27;;
8048;SDS011;20935;42.660;23.342;2022-10-31T10:37:08;9.47;;;5.53;;
8048;SDS011;20935;42.660;23.342;2022-10-31T10:39:40;10.33;;;5.33;;
8048;SDS011;20935;42.660;23.342;2022-10-31T10:42:12;7.90;;;5.23;;
8048;SDS011;20935;42.660;23.342;2022-10-31T10:44:57;9.57;;;5.30;;
8048;SDS011;20935;42.660;23.342;2022-10-31T10:47:53;9.50;;;4.83;;
8048;SDS011;20935;42.660;23.342;2022-10-31T10:50:27;7.63;;;4.53;;
8048;SDS011;20935;42.660;23.342;2022-10-31T10:53:02;9.27;;;4.27;;
8048;SDS011;20935;42.660;23.342;2022-10-31T10:58:28;5.53;;;3.87;;
8048;SDS011;20935;42.660;23.342;2022-10-31T11:00:54;5.63;;;3.37;;
8048;SDS011;20935;42.660;23.342;2022-10-31T11:03:20;7.10;;;3.40;;
8048;SDS011;20935;42.660;23.342;2022-10-31T11:05:53;7.87;;;4.00;;
8048;SDS011;20935;42.660;23.342;2022-10-31T11:08:26;5.57;;;3.30;;
8048;SDS011;20935;42.660;23.342;2022-10-31T11:11:35;6.43;;;3.63;;
8048;SDS011;20935;42.660;23.342;2022-10-31T11:13:42;6.30;;;3.53;;
8048;SDS011;20935;42.660;23.342;2022-10-31T11:16:15;5.57;;;3.63;;
8048;SDS011;20935;42.660;23.342;2022-10-31T11:18:52;11.87;;;4.30;;
8048;SDS011;20935;42.660;23.342;2022-10-31T11:21:21;7.27;;;3.80;;
8048;SDS011;20935;42.660;23.342;2022-10-31T11:23:46;3.83;;;3.23;;
8048;SDS011;20935;42.660;23.342;2022-10-31T11:26:19;7.90;;;4.23;;
8048;SDS011;20935;42.660;23.342;2022-10-31T11:28:55;8.00;;;4.00;;
8048;SDS011;20935;42.660;23.342;2022-10-31T11:31:31;10.87;;;4.20;;
8048;SDS011;20935;42.660;23.342;2022-10-31T11:34:02;7.23;;;3.83;;
8048;SDS011;20935;42.660;23.342;2022-10-31T11:36:30;9.87;;;3.70;;
8048;SDS011;20935;42.660;23.342;2022-10-31T11:38:56;6.77;;;3.77;;
8048;SDS011;20935;42.660;23.342;2022-10-31T11:41:30;7.63;;;4.00;;
8048;SDS011;20935;42.660;23.342;2022-10-31T11:44:04;6.67;;;3.77;;
8048;SDS011;20935;42.660;23.342;2022-10-31T11:46:44;10.83;;;3.73;;
8048;SDS011;20935;42.660;23.342;2022-10-31T11:49:44;8.60;;;4.03;;
8048;SDS011;20935;42.660;23.342;2022-10-31T11:52:07;7.73;;;3.77;;
8048;SDS011;20935;42.660;23.342;2022-10-31T11:54:38;5.40;;;3.90;;
8048;SDS011;20935;42.660;23.342;2022-10-31T11:57:04;9.17;;;3.63;;
8048;SDS011;20935;42.660;23.342;2022-10-31T11:59:30;5.77;;;3.90;;
8048;SDS011;20935;42.660;23.342;2022-10-31T12:01:58;11.50;;;4.57;;
8048;SDS011;20935;42.660;23.342;2022-10-31T12:04:27;7.10;;;3.97;;
8048;SDS011;20935;42.660;23.342;2022-10-31T12:06:55;6.10;;;4.17;;
8048;SDS011;20935;42.660;23.342;2022-10-31T12:09:22;7.63;;;4.53;;
8048;SDS011;20935;42.660;23.342;2022-10-31T12:11:54;5.37;;;3.53;;
8048;SDS011;20935;42.660;23.342;2022-10-31T12:14:33;6.60;;;4.47;;
8048;SDS011;20935;42.660;23.342;2022-10-31T12:19:36;7.20;;;3.73;;
8048;SDS011;20935;42.660;23.342;2022-10-31T12:29:41;8.33;;;3.63;;
8048;SDS011;20935;42.660;23.342;2022-10-31T12:32:20;8.23;;;4.47;;
8048;SDS011;20935;42.660;23.342;2022-10-31T12:37:39;8.17;;;3.73;;
8048;SDS011;20935;42.660;23.342;2022-10-31T12:52:42;6.30;;;3.77;;
8048;SDS011;20935;42.660;23.342;2022-10-31T12:58:07;5.10;;;3.50;;
8048;SDS011;20935;42.660;23.342;2022-10-31T13:00:35;5.43;;;3.57;;
8048;SDS011;20935;42.660;23.342;2022-10-31T13:03:14;13.90;;;4.37;;
8048;SDS011;20935;42.660;23.342;2022-10-31T13:05:46;6.07;;;4.40;;
8048;SDS011;20935;42.660;23.342;2022-10-31T13:08:14;4.70;;;3.30;;
8048;SDS011;20935;42.660;23.342;2022-10-31T13:10:44;6.70;;;4.30;;
8048;SDS011;20935;42.660;23.342;2022-10-31T13:13:21;10.00;;;3.50;;
8048;SDS011;20935;42.660;23.342;2022-10-31T13:16:13;8.90;;;4.33;;
8048;SDS011;20935;42.660;23.342;2022-10-31T13:18:46;8.07;;;4.17;;
8048;SDS011;20935;42.660;23.342;2022-10-31T13:21:15;12.97;;;4.80;;
8048;SDS011;20935;42.660;23.342;2022-10-31T13:23:43;12.70;;;4.87;;
8048;SDS011;20935;42.660;23.342;2022-10-31T13:26:12;8.03;;;3.70;;
8048;SDS011;20935;42.660;23.342;2022-10-31T13:28:58;8.83;;;4.33;;
8048;SDS011;20935;42.660;23.342;2022-10-31T13:31:26;6.10;;;3.63;;
8048;SDS011;20935;42.660;23.342;2022-10-31T13:34:03;7.70;;;3.67;;
8048;SDS011;20935;42.660;23.342;2022-10-31T13:36:38;11.23;;;4.10;;
8048;SDS011;20935;42.660;23.342;2022-10-31T13:46:35;7.60;;;4.20;;
8048;SDS011;20935;42.660;23.342;2022-10-31T13:49:02;7.97;;;3.70;;
8048;SDS011;20935;42.660;23.342;2022-10-31T13:51:34;10.20;;;4.20;;
8048;SDS011;20935;42.660;23.342;2022-10-31T13:54:06;8.50;;;4.03;;
8048;SDS011;20935;42.660;23.342;2022-10-31T13:56:47;8.50;;;3.70;;
8048;SDS011;20935;42.660;23.342;2022-10-31T13:59:19;7.17;;;3.90;;
8048;SDS011;20935;42.660;23.342;2022-10-31T14:01:59;5.90;;;4.40;;
8048;SDS011;20935;42.660;23.342;2022-10-31T14:04:36;8.90;;;3.77;;
8048;SDS011;20935;42.660;23.342;2022-10-31T14:07:07;8.47;;;3.70;;
8048;SDS011;20935;42.660;23.342;2022-10-31T14:09:36;12.60;;;4.30;;
8048;SDS011;20935;42.660;23.342;2022-10-31T14:12:03;8.07;;;4.30;;
8048;SDS011;20935;42.660;23.342;2022-10-31T14:14:33;7.33;;;3.90;;
8048;SDS011;20935;42.660;23.342;2022-10-31T14:16:59;7.77;;;4.37;;
8048;SDS011;20935;42.660;23.342;2022-10-31T14:19:25;7.70;;;4.40;;
8048;SDS011;20935;42.660;23.342;2022-10-31T14:21:51;9.50;;;4.00;;
8048;SDS011;20935;42.660;23.342;2022-10-31T14:26:57;11.17;;;4.60;;
8048;SDS011;20935;42.660;23.342;2022-10-31T14:29:31;15.00;;;5.03;;
8048;SDS011;20935;42.660;23.342;2022-10-31T14:52:12;13.20;;;5.30;;
8048;SDS011;20935;42.660;23.342;2022-10-31T14:54:41;11.73;;;5.80;;
8048;SDS011;20935;42.660;23.342;2022-10-31T14:57:23;14.63;;;5.67;;
8048;SDS011;20935;42.660;23.342;2022-10-31T14:59:52;14.93;;;5.83;;
8048;SDS011;20935;42.660;23.342;2022-10-31T15:02:32;12.97;;;5.40;;
8048;SDS011;20935;42.660;23.342;2022-10-31T15:05:07;20.90;;;7.70;;
8048;SDS011;20935;42.660;23.342;2022-10-31T15:07:34;25.83;;;10.03;;
8048;SDS011;20935;42.660;23.342;2022-10-31T15:10:04;21.83;;;7.43;;
8048;SDS011;20935;42.660;23.342;2022-10-31T15:12:33;16.57;;;7.50;;
8048;SDS011;20935;42.660;23.342;2022-10-31T15:15:12;24.90;;;8.10;;
8048;SDS011;20935;42.660;23.342;2022-10-31T15:17:51;17.33;;;7.30;;
8048;SDS011;20935;42.660;23.342;2022-10-31T15:20:22;22.43;;;7.90;;
8048;SDS011;20935;42.660;23.342;2022-10-31T15:22:48;28.63;;;12.07;;
8048;SDS011;20935;42.660;23.342;2022-10-31T15:25:18;18.40;;;8.57;;
8048;SDS011;20935;42.660;23.342;2022-10-31T15:27:44;22.90;;;9.87;;
8048;SDS011;20935;42.660;23.342;2022-10-31T15:30:28;22.63;;;10.27;;
8048;SDS011;20935;42.660;23.342;2022-10-31T15:32:54;26.87;;;9.80;;
8048;SDS011;20935;42.660;23.342;2022-10-31T15:35:21;30.13;;;11.30;;
8048;SDS011;20935;42.660;23.342;2022-10-31T15:37:47;27.10;;;12.13;;
8048;SDS011;20935;42.660;23.342;2022-10-31T15:40:17;26.27;;;13.03;;
8048;SDS011;20935;42.660;23.342;2022-10-31T15:42:48;35.10;;;13.37;;
8048;SDS011;20935;42.660;23.342;2022-10-31T15:50:30;36.33;;;13.80;;
8048;SDS011;20935;42.660;23.342;2022-10-31T15:52:57;28.87;;;11.63;;
8048;SDS011;20935;42.660;23.342;2022-10-31T15:55:27;29.43;;;12.57;;
8048;SDS011;20935;42.660;23.342;2022-10-31T15:58:01;30.77;;;12.33;;
8048;SDS011;20935;42.660;23.342;2022-10-31T16:00:31;31.83;;;11.70;;
8048;SDS011;20935;42.660;23.342;2022-10-31T16:05:52;30.10;;;12.70;;
8048;SDS011;20935;42.660;23.342;2022-10-31T16:10:50;24.83;;;9.87;;
8048;SDS011;20935;42.660;23.342;2022-10-31T16:13:17;32.27;;;11.80;;
8048;SDS011;20935;42.660;23.342;2022-10-31T16:15:56;26.77;;;9.93;;
8048;SDS011;20935;42.660;23.342;2022-10-31T16:18:24;29.67;;;10.93;;
8048;SDS011;20935;42.660;23.342;2022-10-31T16:20:51;27.10;;;9.57;;
8048;SDS011;20935;42.660;23.342;2022-10-31T16:23:19;17.33;;;7.23;;
8048;SDS011;20935;42.660;23.342;2022-10-31T16:25:45;21.33;;;8.17;;
8048;SDS011;20935;42.660;23.342;2022-10-31T16:28:14;28.57;;;9.27;;
8048;SDS011;20935;42.660;23.342;2022-10-31T16:30:42;25.80;;;10.10;;
8048;SDS011;20935;42.660;23.342;2022-10-31T16:35:47;24.07;;;8.43;;
8048;SDS011;20935;42.660;23.342;2022-10-31T16:38:16;18.13;;;9.17;;
8048;SDS011;20935;42.660;23.342;2022-10-31T16:40:42;23.93;;;9.63;;
8048;SDS011;20935;42.660;23.342;2022-10-31T16:43:09;21.93;;;7.83;;
8048;SDS011;20935;42.660;23.342;2022-10-31T16:45:36;16.00;;;6.83;;
8048;SDS011;20935;42.660;23.342;2022-10-31T16:48:06;19.63;;;7.73;;
8048;SDS011;20935;42.660;23.342;2022-10-31T16:50:32;19.30;;;6.77;;
8048;SDS011;20935;42.660;23.342;2022-10-31T16:53:01;17.33;;;7.17;;
8048;SDS011;20935;42.660;23.342;2022-10-31T16:55:27;12.47;;;6.87;;
8048;SDS011;20935;42.660;23.342;2022-10-31T16:57:57;15.00;;;6.77;;